Time;durP1;ratioP1;P1;durP2;ratioP2;P2;SDS_P1;SDS_P2;PMS_P1;PMS_P2;Temp;Humidity;BMP_temperature;BMP_pressure;BME280_temperature;BME280_humidity;BME280_pressure;Samples;Min_cycle;Max_cycle;Signal;HPM_P1;HPM_P2
2022/08/23 00:01:15;;;;;;;57.58;6.28;;;;;;;;;;1691775;84;21257;-81
2022/08/23 00:03:41;;;;;;;49.45;6.20;;;;;;;;;;1691894;84;20829;-85
2022/08/23 00:06:07;;;;;;;44.98;6.33;;;;;;;;;;1692048;84;20920;-82
2022/08/23 00:08:33;;;;;;;50.45;6.15;;;;;;;;;;1692088;84;20959;-81
2022/08/23 00:10:59;;;;;;;84.50;6.78;;;;;;;;;;1691921;84;21012;-81
2022/08/23 00:13:25;;;;;;;52.33;6.58;;;;;;;;;;1691925;84;21622;-80
2022/08/23 00:15:51;;;;;;;45.10;6.10;;;;;;;;;;1692022;84;20881;-88
2022/08/23 00:18:17;;;;;;;59.85;6.50;;;;;;;;;;1691808;84;20907;-82
2022/08/23 00:20:43;;;;;;;40.12;5.90;;;;;;;;;;1692016;84;21460;-81
2022/08/23 00:23:09;;;;;;;50.45;5.35;;;;;;;;;;1692115;84;20984;-82
2022/08/23 00:25:35;;;;;;;66.10;6.85;;;;;;;;;;1692199;84;21495;-82
2022/08/23 00:28:01;;;;;;;58.73;6.17;;;;;;;;;;1691983;84;20995;-82
2022/08/23 00:30:29;;;;;;;46.18;6.47;;;;;;;;;;1692077;84;20921;-83
2022/08/23 00:32:54;;;;;;;48.52;5.97;;;;;;;;;;1670019;85;21021;-81
2022/08/23 00:35:20;;;;;;;48.95;5.90;;;;;;;;;;1670366;85;21069;-80
2022/08/23 00:37:46;;;;;;;43.90;5.40;;;;;;;;;;1670363;85;20890;-82
2022/08/23 00:40:15;;;;;;;52.88;5.75;;;;;;;;;;1670272;85;21025;-83
2022/08/23 00:48:38;;;;;;;59.45;6.22;;;;;;;;;;1670051;85;21006;-82
2022/08/23 00:51:17;;;;;;;34.45;5.15;;;;;;;;;;1670015;85;20982;-82
2022/08/23 00:53:49;;;;;;;50.40;6.05;;;;;;;;;;1634614;87;20895;-88
2022/08/23 00:56:16;;;;;;;103.60;7.83;;;;;;;;;;1635013;87;21662;-78
2022/08/23 00:58:42;;;;;;;51.30;6.95;;;;;;;;;;1644041;86;21017;-82
2022/08/23 01:01:08;;;;;;;57.13;6.80;;;;;;;;;;1655288;85;20971;-80
2022/08/23 01:03:37;;;;;;;53.30;6.05;;;;;;;;;;1655297;86;21514;-80
2022/08/23 01:06:21;;;;;;;51.25;6.50;;;;;;;;;;1649668;85;21518;-82
2022/08/23 01:08:53;;;;;;;51.23;6.55;;;;;;;;;;1654806;84;21311;-81
2022/08/23 01:11:32;;;;;;;51.88;5.87;;;;;;;;;;1655634;86;21529;-82
2022/08/23 01:14:02;;;;;;;43.60;6.03;;;;;;;;;;1631664;86;21381;-81
2022/08/23 01:16:33;;;;;;;58.68;6.60;;;;;;;;;;1565884;90;21122;-81
2022/08/23 01:19:01;;;;;;;45.50;6.70;;;;;;;;;;1569033;90;21527;-80
2022/08/23 01:21:32;;;;;;;48.28;5.37;;;;;;;;;;1549174;90;20959;-80
2022/08/23 01:24:00;;;;;;;52.27;6.60;;;;;;;;;;1569052;90;20995;-80
2022/08/23 01:26:27;;;;;;;60.05;7.10;;;;;;;;;;1569079;90;20979;-81
2022/08/23 01:28:53;;;;;;;61.00;6.30;;;;;;;;;;1573310;89;21027;-79
2022/08/23 01:31:21;;;;;;;57.23;6.87;;;;;;;;;;1605240;89;21031;-80
2022/08/23 01:33:50;;;;;;;46.20;5.97;;;;;;;;;;1584334;89;21062;-80
2022/08/23 01:36:16;;;;;;;54.90;6.30;;;;;;;;;;1605352;89;21511;-80
2022/08/23 01:38:42;;;;;;;44.35;6.95;;;;;;;;;;1604392;89;21063;-81
2022/08/23 01:41:08;;;;;;;58.28;6.60;;;;;;;;;;1605653;89;21757;-81
2022/08/23 01:43:34;;;;;;;54.83;7.15;;;;;;;;;;1605775;88;21015;-81
2022/08/23 01:46:08;;;;;;;48.80;6.85;;;;;;;;;;1605484;88;21038;-81
2022/08/23 01:48:34;;;;;;;48.33;5.92;;;;;;;;;;1602703;89;21576;-80
2022/08/23 01:51:00;;;;;;;60.00;6.58;;;;;;;;;;1628639;87;21827;-80
2022/08/23 01:53:26;;;;;;;53.42;6.40;;;;;;;;;;1637021;87;20957;-80
2022/08/23 01:55:52;;;;;;;53.08;5.78;;;;;;;;;;1637044;87;20918;-85
2022/08/23 01:58:18;;;;;;;58.92;6.10;;;;;;;;;;1637245;87;20867;-79
2022/08/23 02:00:44;;;;;;;60.35;6.62;;;;;;;;;;1639404;87;20934;-76
2022/08/23 02:03:11;;;;;;;50.12;5.47;;;;;;;;;;1639168;87;20977;-81
2022/08/23 02:05:38;;;;;;;36.60;6.17;;;;;;;;;;1638489;87;20989;-79
2022/08/23 02:10:50;;;;;;;54.55;5.83;;;;;;;;;;1639071;87;20971;-81
2022/08/23 02:13:19;;;;;;;38.78;6.28;;;;;;;;;;1654163;83;20949;-80
2022/08/23 02:15:46;;;;;;;49.40;7.00;;;;;;;;;;1725837;83;20972;-80
2022/08/23 02:18:12;;;;;;;52.43;5.78;;;;;;;;;;1731223;82;21008;-80
2022/08/23 02:20:47;;;;;;;42.45;6.30;;;;;;;;;;1725674;83;21397;-80
2022/08/23 02:23:13;;;;;;;53.52;6.42;;;;;;;;;;1725692;82;20972;-78
2022/08/23 02:25:39;;;;;;;60.25;6.92;;;;;;;;;;1725563;83;21007;-80
2022/08/23 02:28:05;;;;;;;42.67;5.85;;;;;;;;;;1725447;83;20924;-80
2022/08/23 02:30:31;;;;;;;34.63;5.55;;;;;;;;;;1725721;83;20901;-81
2022/08/23 02:32:56;;;;;;;36.75;5.37;;;;;;;;;;1725872;83;21478;-80
2022/08/23 02:35:23;;;;;;;47.15;6.03;;;;;;;;;;1725840;83;20884;-80
2022/08/23 02:37:49;;;;;;;40.45;5.75;;;;;;;;;;1725366;83;20980;-80
2022/08/23 02:40:15;;;;;;;39.20;6.80;;;;;;;;;;1725857;83;20940;-79
2022/08/23 02:42:41;;;;;;;51.85;6.20;;;;;;;;;;1725768;83;20987;-81
2022/08/23 02:45:07;;;;;;;42.13;6.00;;;;;;;;;;1725955;83;21006;-80
2022/08/23 02:47:35;;;;;;;47.35;5.95;;;;;;;;;;1725863;83;20928;-85
2022/08/23 02:50:05;;;;;;;46.37;6.50;;;;;;;;;;1725336;83;20917;-81
2022/08/23 02:52:30;;;;;;;50.08;5.87;;;;;;;;;;1617897;88;21058;-82
2022/08/23 02:54:56;;;;;;;54.58;6.87;;;;;;;;;;1613268;87;20938;-83
2022/08/23 02:57:22;;;;;;;43.23;5.90;;;;;;;;;;1616609;87;21001;-79
2022/08/23 02:59:49;;;;;;;41.68;5.28;;;;;;;;;;1611709;87;21713;-81
2022/08/23 03:02:15;;;;;;;41.48;6.37;;;;;;;;;;1609957;89;20987;-81
2022/08/23 03:04:41;;;;;;;46.13;6.75;;;;;;;;;;1609667;87;21130;-81
2022/08/23 03:07:06;;;;;;;40.33;6.62;;;;;;;;;;1580904;89;21367;-80
2022/08/23 03:09:32;;;;;;;45.20;6.90;;;;;;;;;;1582899;89;21025;-82
2022/08/23 03:11:58;;;;;;;44.30;5.72;;;;;;;;;;1579731;90;20986;-81
2022/08/23 03:14:24;;;;;;;53.87;7.37;;;;;;;;;;1582514;89;20958;-82
2022/08/23 03:16:50;;;;;;;54.20;6.45;;;;;;;;;;1552401;92;21050;-82
2022/08/23 03:19:16;;;;;;;46.95;5.90;;;;;;;;;;1583115;89;21545;-81
2022/08/23 03:21:42;;;;;;;47.95;5.83;;;;;;;;;;1580117;89;20986;-85
2022/08/23 03:24:08;;;;;;;42.10;7.72;;;;;;;;;;1552645;92;21003;-81
2022/08/23 03:26:34;;;;;;;35.35;6.10;;;;;;;;;;1552168;92;21072;-81
2022/08/23 03:29:01;;;;;;;53.00;6.87;;;;;;;;;;1552022;91;21084;-80
2022/08/23 03:31:27;;;;;;;46.05;6.80;;;;;;;;;;1550249;92;21038;-80
2022/08/23 03:33:52;;;;;;;50.65;6.95;;;;;;;;;;1552434;92;21030;-84
2022/08/23 03:36:19;;;;;;;38.20;6.92;;;;;;;;;;1552475;92;20963;-88
2022/08/23 03:38:45;;;;;;;49.13;7.15;;;;;;;;;;1552171;91;21566;-87
2022/08/23 03:41:11;;;;;;;48.68;6.92;;;;;;;;;;1551101;92;20983;-82
2022/08/23 03:43:38;;;;;;;35.25;6.00;;;;;;;;;;1555710;92;21141;-81
2022/08/23 03:46:04;;;;;;;38.90;6.78;;;;;;;;;;1552507;92;21028;-79
2022/08/23 03:48:30;;;;;;;35.20;5.37;;;;;;;;;;1562427;88;21032;-83
2022/08/23 03:50:56;;;;;;;42.27;7.05;;;;;;;;;;1629637;87;20939;-77
2022/08/23 03:53:22;;;;;;;34.15;5.53;;;;;;;;;;1624516;87;21665;-81
2022/08/23 03:55:49;;;;;;;36.68;5.55;;;;;;;;;;1700278;82;20982;-79
2022/08/23 03:58:15;;;;;;;41.55;6.35;;;;;;;;;;1730417;82;20985;-82
2022/08/23 04:00:41;;;;;;;34.85;5.67;;;;;;;;;;1717036;82;21439;-80
2022/08/23 04:03:07;;;;;;;39.33;6.40;;;;;;;;;;1719035;82;20980;-85
2022/08/23 04:05:33;;;;;;;49.18;6.30;;;;;;;;;;1719704;82;20876;-86
2022/08/23 04:08:00;;;;;;;32.55;6.28;;;;;;;;;;1724140;82;20873;-81
2022/08/23 04:10:26;;;;;;;29.30;5.08;;;;;;;;;;1717350;82;20986;-81
2022/08/23 04:12:53;;;;;;;25.32;5.37;;;;;;;;;;1718351;82;20887;-82
2022/08/23 04:15:19;;;;;;;32.38;5.45;;;;;;;;;;1719938;82;21033;-81
2022/08/23 04:17:45;;;;;;;48.70;5.87;;;;;;;;;;1721775;83;20939;-80
2022/08/23 04:20:11;;;;;;;33.75;5.40;;;;;;;;;;1715930;83;21549;-84
2022/08/23 04:22:37;;;;;;;35.78;5.42;;;;;;;;;;1715524;83;20911;-83
2022/08/23 04:25:04;;;;;;;33.75;5.08;;;;;;;;;;1720805;83;20935;-80
2022/08/23 04:27:30;;;;;;;33.92;5.37;;;;;;;;;;1718464;82;20971;-82
2022/08/23 04:29:57;;;;;;;38.30;6.08;;;;;;;;;;1721737;82;20935;-83
2022/08/23 04:32:23;;;;;;;31.85;5.83;;;;;;;;;;1728468;82;20978;-83
2022/08/23 04:34:49;;;;;;;36.63;5.50;;;;;;;;;;1721558;82;21003;-82
2022/08/23 04:37:15;;;;;;;31.68;4.97;;;;;;;;;;1732245;82;21646;-81
2022/08/23 04:42:24;;;;;;;35.58;5.15;;;;;;;;;;1736552;82;21599;-84
2022/08/23 04:44:50;;;;;;;26.35;5.05;;;;;;;;;;1729057;82;21039;-83
2022/08/23 04:47:17;;;;;;;41.40;5.90;;;;;;;;;;1730675;82;20967;-83
2022/08/23 04:49:42;;;;;;;31.05;5.72;;;;;;;;;;1747552;81;20963;-83
2022/08/23 04:52:08;;;;;;;27.13;5.40;;;;;;;;;;1747338;82;20978;-83
2022/08/23 04:54:34;;;;;;;25.60;5.00;;;;;;;;;;1729183;81;20877;-82
2022/08/23 04:57:00;;;;;;;37.65;5.58;;;;;;;;;;1723902;82;20964;-83
2022/08/23 04:59:26;;;;;;;27.20;5.45;;;;;;;;;;1732710;81;22712;-85
2022/08/23 05:01:52;;;;;;;26.52;5.75;;;;;;;;;;1743867;81;21577;-83
2022/08/23 05:04:18;;;;;;;39.08;5.28;;;;;;;;;;1731675;81;21723;-82
2022/08/23 05:06:44;;;;;;;30.23;5.08;;;;;;;;;;1734575;81;20904;-83
2022/08/23 05:09:10;;;;;;;32.30;5.55;;;;;;;;;;1740319;81;20946;-82
2022/08/23 05:11:36;;;;;;;25.77;5.67;;;;;;;;;;1739459;81;20934;-84
2022/08/23 05:14:02;;;;;;;31.80;5.62;;;;;;;;;;1732396;81;21467;-83
2022/08/23 05:16:28;;;;;;;33.90;5.92;;;;;;;;;;1727981;81;20904;-81
2022/08/23 05:18:54;;;;;;;36.85;7.00;;;;;;;;;;1741913;81;20896;-89
2022/08/23 05:21:22;;;;;;;32.13;5.78;;;;;;;;;;1731845;82;20922;-86
2022/08/23 05:23:47;;;;;;;41.13;6.10;;;;;;;;;;1730364;82;21002;-82
2022/08/23 05:26:13;;;;;;;24.10;4.95;;;;;;;;;;1727925;81;21585;-88
2022/08/23 05:28:46;;;;;;;26.75;5.28;;;;;;;;;;1729936;82;21707;-82
2022/08/23 05:31:16;;;;;;;30.45;5.47;;;;;;;;;;1731435;82;20957;-83
2022/08/23 05:33:42;;;;;;;29.95;5.58;;;;;;;;;;1731613;82;20910;-87
2022/08/23 05:36:10;;;;;;;22.17;5.65;;;;;;;;;;1730914;82;20958;-88
2022/08/23 05:38:36;;;;;;;23.47;5.50;;;;;;;;;;1730592;82;20982;-85
2022/08/23 05:41:04;;;;;;;29.87;5.78;;;;;;;;;;1731367;82;31079;-87
2022/08/23 05:43:30;;;;;;;20.35;5.15;;;;;;;;;;1727136;81;21721;-85
2022/08/23 05:46:05;;;;;;;26.17;5.40;;;;;;;;;;1738044;81;21084;-86
2022/08/23 05:48:32;;;;;;;25.90;4.85;;;;;;;;;;1731025;82;21039;-89
2022/08/23 05:51:10;;;;;;;25.90;4.72;;;;;;;;;;1742073;81;20974;-85
2022/08/23 05:53:36;;;;;;;22.13;5.25;;;;;;;;;;1721144;83;21534;-84
2022/08/23 05:56:11;;;;;;;20.68;4.75;;;;;;;;;;1707149;83;21073;-82
2022/08/23 05:58:38;;;;;;;20.17;5.28;;;;;;;;;;1698588;84;21026;-86
2022/08/23 06:01:05;;;;;;;25.40;5.58;;;;;;;;;;1698206;84;20950;-85
2022/08/23 06:03:31;;;;;;;28.90;4.37;;;;;;;;;;1702155;83;20970;-82
2022/08/23 06:05:58;;;;;;;18.90;4.40;;;;;;;;;;1707055;83;20989;-83
2022/08/23 06:08:24;;;;;;;21.37;5.28;;;;;;;;;;1703647;83;21014;-83
2022/08/23 06:11:03;;;;;;;18.98;4.47;;;;;;;;;;1704371;83;20940;-80
2022/08/23 06:13:29;;;;;;;31.70;5.05;;;;;;;;;;1703138;83;20919;-82
2022/08/23 06:15:56;;;;;;;22.75;4.37;;;;;;;;;;1704947;83;21028;-81
2022/08/23 06:18:22;;;;;;;18.45;4.72;;;;;;;;;;1690213;83;20920;-82
2022/08/23 06:20:48;;;;;;;21.90;4.50;;;;;;;;;;1702232;83;20954;-83
2022/08/23 06:23:14;;;;;;;25.00;5.30;;;;;;;;;;1701838;83;20991;-82
2022/08/23 06:25:40;;;;;;;17.32;4.65;;;;;;;;;;1703088;83;21174;-80
2022/08/23 06:28:05;;;;;;;15.43;4.97;;;;;;;;;;1689654;83;21431;-83
2022/08/23 06:30:31;;;;;;;23.07;5.08;;;;;;;;;;1712062;81;20940;-82
2022/08/23 06:32:59;;;;;;;23.70;5.15;;;;;;;;;;1734458;81;20881;-84
2022/08/23 06:37:56;;;;;;;22.98;5.00;;;;;;;;;;1621327;87;21498;-80
2022/08/23 06:40:22;;;;;;;25.08;4.75;;;;;;;;;;1645011;87;20998;-80
2022/08/23 06:42:48;;;;;;;19.30;5.03;;;;;;;;;;1644683;87;20986;-84
2022/08/23 06:45:14;;;;;;;25.30;5.25;;;;;;;;;;1645096;87;20967;-82
2022/08/23 06:47:40;;;;;;;21.20;4.80;;;;;;;;;;1613584;87;20997;-82
2022/08/23 06:50:06;;;;;;;29.75;4.90;;;;;;;;;;1615550;87;21779;-81
2022/08/23 06:52:32;;;;;;;27.65;5.85;;;;;;;;;;1610500;89;20919;-81
2022/08/23 06:54:58;;;;;;;16.12;4.70;;;;;;;;;;1625455;87;20882;-82
2022/08/23 06:57:24;;;;;;;27.60;5.25;;;;;;;;;;1612861;89;20978;-84
2022/08/23 06:59:50;;;;;;;20.35;5.50;;;;;;;;;;1613007;87;21570;-82
2022/08/23 07:02:16;;;;;;;20.55;5.30;;;;;;;;;;1612526;89;21189;-83
2022/08/23 07:04:42;;;;;;;18.45;5.45;;;;;;;;;;1612570;89;21528;-84
2022/08/23 07:07:08;;;;;;;24.05;5.10;;;;;;;;;;1612691;89;20922;-82
2022/08/23 07:09:34;;;;;;;28.70;5.42;;;;;;;;;;1612512;89;20997;-80
2022/08/23 07:12:00;;;;;;;25.43;5.22;;;;;;;;;;1612928;89;21015;-82
2022/08/23 07:14:26;;;;;;;17.92;4.58;;;;;;;;;;1612747;89;21138;-81
2022/08/23 07:16:56;;;;;;;21.68;5.10;;;;;;;;;;1612195;87;21012;-83
2022/08/23 07:19:26;;;;;;;23.98;4.80;;;;;;;;;;1605824;89;21022;-86
2022/08/23 07:21:52;;;;;;;14.80;4.12;;;;;;;;;;1605665;89;21561;-82
2022/08/23 07:24:18;;;;;;;17.80;5.47;;;;;;;;;;1606079;88;21569;-85
2022/08/23 07:26:45;;;;;;;30.43;4.90;;;;;;;;;;1605667;88;21026;-86
2022/08/23 07:29:12;;;;;;;18.82;4.95;;;;;;;;;;1606455;88;21015;-82
2022/08/23 07:31:43;;;;;;;17.07;4.53;;;;;;;;;;1606155;88;21636;-82
2022/08/23 07:34:09;;;;;;;22.65;4.55;;;;;;;;;;1619404;85;20972;-85
2022/08/23 07:36:36;;;;;;;19.75;4.78;;;;;;;;;;1662122;85;20905;-86
2022/08/23 07:39:05;;;;;;;17.98;4.10;;;;;;;;;;1662219;85;21031;-85
2022/08/23 07:41:30;;;;;;;14.87;4.60;;;;;;;;;;1649255;86;20958;-87
2022/08/23 07:44:00;;;;;;;23.77;4.45;;;;;;;;;;1638441;87;20918;-85
2022/08/23 07:46:26;;;;;;;41.70;5.25;;;;;;;;;;1616444;87;21534;-86
2022/08/23 07:48:52;;;;;;;17.40;4.17;;;;;;;;;;1638059;87;21146;-83
2022/08/23 07:51:19;;;;;;;12.88;4.12;;;;;;;;;;1638178;87;21802;-83
2022/08/23 07:53:45;;;;;;;24.67;4.25;;;;;;;;;;1638409;87;20998;-86
2022/08/23 07:56:13;;;;;;;18.92;4.22;;;;;;;;;;1638688;87;21169;-87
2022/08/23 07:58:40;;;;;;;16.37;4.45;;;;;;;;;;1638196;87;21045;-85
2022/08/23 08:01:15;;;;;;;18.62;4.95;;;;;;;;;;1615200;86;21026;-84
2022/08/23 08:03:42;;;;;;;17.17;5.20;;;;;;;;;;1608994;88;21572;-82
2022/08/23 08:08:46;;;;;;;23.45;6.15;;;;;;;;;;1562429;90;21026;-86
2022/08/23 08:11:15;;;;;;;16.67;6.35;;;;;;;;;;1556274;92;21107;-81
2022/08/23 08:13:42;;;;;;;23.67;6.87;;;;;;;;;;1556330;92;21518;-87
2022/08/23 08:16:09;;;;;;;26.70;5.83;;;;;;;;;;1559619;91;20999;-80
2022/08/23 08:18:36;;;;;;;19.48;5.87;;;;;;;;;;1564154;90;21024;-83
2022/08/23 08:21:03;;;;;;;31.65;6.75;;;;;;;;;;1563803;90;21543;-87
2022/08/23 08:23:29;;;;;;;18.52;6.03;;;;;;;;;;1563479;91;21020;-82
2022/08/23 08:26:04;;;;;;;25.43;6.20;;;;;;;;;;1563196;91;21096;-81
2022/08/23 08:28:31;;;;;;;17.85;5.03;;;;;;;;;;1534464;93;20999;-86
2022/08/23 08:30:59;;;;;;;13.15;5.30;;;;;;;;;;1535063;93;21042;-84
2022/08/23 08:33:25;;;;;;;21.57;5.62;;;;;;;;;;1534395;93;21116;-84
2022/08/23 08:35:51;;;;;;;16.12;5.62;;;;;;;;;;1534755;93;21055;-84
2022/08/23 08:38:17;;;;;;;24.32;5.90;;;;;;;;;;1523378;93;21561;-80
2022/08/23 08:40:43;;;;;;;12.40;5.05;;;;;;;;;;1497831;93;21050;-83
2022/08/23 08:43:16;;;;;;;17.70;5.47;;;;;;;;;;1517843;93;21121;-82
2022/08/23 08:46:00;;;;;;;23.12;5.70;;;;;;;;;;1526559;93;21054;-83
2022/08/23 08:48:27;;;;;;;16.90;6.30;;;;;;;;;;1533302;92;21409;-85
2022/08/23 08:50:55;;;;;;;20.50;5.37;;;;;;;;;;1529601;93;21430;-82
2022/08/23 08:53:36;;;;;;;14.23;4.60;;;;;;;;;;1499309;93;21065;-83
2022/08/23 08:56:05;;;;;;;6.55;3.50;;;;;;;;;;1491659;95;21120;-84
2022/08/23 08:58:34;;;;;;;12.07;4.50;;;;;;;;;;1490428;95;21110;-80
2022/08/23 09:01:01;;;;;;;26.52;5.08;;;;;;;;;;1532962;90;21034;-84
2022/08/23 09:03:30;;;;;;;19.62;4.08;;;;;;;;;;1566556;89;22644;-82
2022/08/23 09:06:08;;;;;;;11.83;3.90;;;;;;;;;;1594322;88;20984;-83
2022/08/23 09:08:43;;;;;;;16.65;3.37;;;;;;;;;;1593379;88;21489;-83
2022/08/23 09:11:30;;;;;;;14.13;3.75;;;;;;;;;;1604547;88;21568;-85
2022/08/23 09:14:11;;;;;;;14.03;3.87;;;;;;;;;;1607470;88;21139;-85
2022/08/23 09:17:10;;;;;;;13.25;3.60;;;;;;;;;;1604752;88;20994;-85
2022/08/23 09:19:37;;;;;;;9.10;3.40;;;;;;;;;;1526968;92;21027;-83
2022/08/23 09:22:06;;;;;;;17.87;3.20;;;;;;;;;;1524698;92;21462;-83
2022/08/23 09:24:32;;;;;;;13.40;3.50;;;;;;;;;;1531462;91;21066;-82
2022/08/23 09:30:48;;;;;;;14.33;4.20;;;;;;;37.64;25.50;101118.66;1789580;78;23496;-80
2022/08/23 09:33:19;;;;;;;12.45;4.15;;;;;;;37.60;25.28;101127.02;1737648;80;21035;-83
2022/08/23 09:36:25;;;;;;;9.88;3.52;;;;;;;37.40;25.57;101119.34;1747755;80;21248;-83
